createdAt,value
2019-05-13T00:02:38.630Z,21.90
2019-05-13T00:05:44.374Z,22.00
2019-05-13T00:08:47.785Z,22.00
2019-05-13T00:11:54.048Z,22.00
2019-05-13T00:14:57.692Z,22.00
2019-05-13T00:18:03.612Z,22.00
2019-05-13T00:21:07.290Z,21.90
2019-05-13T00:24:10.965Z,22.00
2019-05-13T00:27:14.878Z,22.30
2019-05-13T00:30:18.670Z,22.10
2019-05-13T00:33:24.346Z,22.30
2019-05-13T00:36:27.954Z,22.10
2019-05-13T00:39:33.703Z,22.30
2019-05-13T00:42:37.029Z,22.60
2019-05-13T00:45:40.763Z,22.90
2019-05-13T00:48:44.736Z,23.30
2019-05-13T00:51:48.622Z,23.60
2019-05-13T00:54:53.506Z,23.80
2019-05-13T00:57:57.466Z,23.90
2019-05-13T01:01:03.518Z,24.10
2019-05-13T01:04:06.790Z,24.40
2019-05-13T01:07:24.424Z,24.90
2019-05-13T01:10:16.031Z,24.70
2019-05-13T01:13:19.702Z,25.50
2019-05-13T01:16:23.556Z,25.30
2019-05-13T01:19:27.259Z,25.30
2019-05-13T01:22:30.954Z,25.30
2019-05-13T01:25:34.774Z,25.40
2019-05-13T01:28:38.418Z,26.30
2019-05-13T01:31:43.500Z,26.20
2019-05-13T01:34:47.412Z,26.60
2019-05-13T01:37:53.684Z,26.70
2019-05-13T01:40:56.510Z,27.10
2019-05-13T01:44:00.255Z,27.30
2019-05-13T01:47:04.615Z,27.40
2019-05-13T01:50:08.784Z,27.70
2019-05-13T01:53:14.514Z,27.80
2019-05-13T01:56:17.837Z,28.00
2019-05-13T01:59:23.966Z,28.40
2019-05-13T02:02:27.700Z,28.80
2019-05-13T02:05:33.647Z,28.80
2019-05-13T02:08:36.786Z,29.20
2019-05-13T02:11:43.706Z,28.80
2019-05-13T02:14:45.950Z,29.20
2019-05-13T02:17:49.611Z,29.10
2019-05-13T02:20:55.353Z,29.50
2019-05-13T02:23:58.939Z,29.60
2019-05-13T02:27:03.682Z,29.80
2019-05-13T02:30:08.040Z,29.80
2019-05-13T02:33:13.241Z,29.90
2019-05-13T02:36:17.340Z,30.00
2019-05-13T02:39:22.318Z,30.30
2019-05-13T02:42:26.346Z,31.10
2019-05-13T02:45:33.007Z,31.00
2019-05-13T02:48:35.852Z,31.30
2019-05-13T02:51:42.609Z,31.70
2019-05-13T02:54:44.922Z,31.50
2019-05-13T02:57:48.643Z,32.20
2019-05-13T03:00:53.693Z,32.60
2019-05-13T03:03:57.728Z,32.60
2019-05-13T03:07:03.074Z,32.40
2019-05-13T03:10:07.875Z,32.50
2019-05-13T03:13:12.655Z,32.60
2019-05-13T03:16:25.944Z,32.80
2019-05-13T03:19:32.914Z,32.70
2019-05-13T03:22:35.477Z,33.70
2019-05-13T03:25:42.686Z,33.40
2019-05-13T03:28:44.838Z,34.10
2019-05-13T03:31:48.523Z,34.40
2019-05-13T03:34:55.841Z,34.40
2019-05-13T03:37:58.285Z,34.60
2019-05-13T03:41:04.132Z,34.20
2019-05-13T03:44:13.532Z,34.70
2019-05-13T03:47:18.423Z,34.90
2019-05-13T03:50:22.852Z,34.50
2019-05-13T03:53:26.910Z,34.60
2019-05-13T03:56:32.829Z,34.90
2019-05-13T03:59:36.445Z,34.80
2019-05-13T04:02:42.946Z,34.40
2019-05-13T04:05:46.486Z,35.20
2019-05-13T04:08:53.554Z,35.00
2019-05-13T04:11:55.998Z,34.60
2019-05-13T04:15:03.250Z,35.00
2019-05-13T04:18:05.410Z,34.70
2019-05-13T04:21:12.612Z,34.80
2019-05-13T04:24:14.795Z,34.80
2019-05-13T04:27:19.170Z,35.00
2019-05-13T04:30:24.638Z,35.90
2019-05-13T04:33:28.750Z,35.70
2019-05-13T04:36:33.011Z,35.10
2019-05-13T04:39:47.773Z,35.30
2019-05-13T04:42:42.755Z,35.60
2019-05-13T04:45:47.419Z,35.40
2019-05-13T04:48:53.054Z,36.10
2019-05-13T04:51:56.687Z,35.40
2019-05-13T04:55:03.436Z,34.90
2019-05-13T04:58:06.176Z,34.50
2019-05-13T05:01:48.793Z,33.90
2019-05-13T05:05:03.359Z,33.70
2019-05-13T05:08:42.126Z,33.40
2019-05-13T05:12:17.309Z,32.80
2019-05-13T05:15:44.579Z,32.10
2019-05-13T05:19:06.289Z,31.50
2019-05-13T05:22:28.285Z,30.40
2019-05-13T05:25:52.152Z,29.30
2019-05-13T05:29:18.972Z,29.00
2019-05-13T05:33:02.921Z,28.60
2019-05-13T05:36:33.309Z,28.30
2019-05-13T05:39:39.147Z,27.80
2019-05-13T05:42:44.661Z,27.00
2019-05-13T05:45:53.070Z,27.30
2019-05-13T05:49:02.103Z,26.80
2019-05-13T05:52:06.769Z,26.30
2019-05-13T05:55:11.298Z,26.20
2019-05-13T05:58:16.953Z,25.70
2019-05-13T06:01:24.116Z,25.30
2019-05-13T06:04:28.211Z,25.90
2019-05-13T06:07:33.627Z,25.70
2019-05-13T06:10:49.121Z,25.40
2019-05-13T06:13:42.781Z,25.00
2019-05-13T06:16:46.583Z,24.60
2019-05-13T06:19:51.317Z,25.10
2019-05-13T06:22:55.443Z,24.70
2019-05-13T06:26:01.933Z,24.50
2019-05-13T06:29:05.295Z,23.70
2019-05-13T06:32:19.056Z,23.10
2019-05-13T06:35:14.503Z,22.90
2019-05-13T06:38:18.158Z,22.20
2019-05-13T06:41:22.093Z,21.30
2019-05-13T06:44:25.831Z,21.70
2019-05-13T06:47:32.029Z,21.50
2019-05-13T06:50:35.063Z,21.20
2019-05-13T06:53:41.302Z,20.90
2019-05-13T06:56:44.163Z,20.70
2019-05-13T06:59:47.935Z,20.50
2019-05-13T07:02:51.938Z,21.10
2019-05-13T07:05:56.168Z,20.00
2019-05-13T07:09:01.427Z,19.80
2019-05-13T07:12:05.265Z,20.20
2019-05-13T07:15:11.544Z,21.50
2019-05-13T07:18:16.342Z,21.80
2019-05-13T07:21:21.694Z,21.00
2019-05-13T07:24:25.883Z,21.50
2019-05-13T07:27:31.661Z,21.60
2019-05-13T07:30:42.508Z,22.00
2019-05-13T07:33:46.681Z,21.80
2019-05-13T07:36:51.403Z,22.20
2019-05-13T07:39:55.426Z,22.30
2019-05-13T07:43:01.560Z,22.90
2019-05-13T07:46:04.611Z,22.30
2019-05-13T07:49:08.250Z,22.10
2019-05-13T07:52:12.129Z,22.60
2019-05-13T07:55:15.970Z,22.40
2019-05-13T07:58:22.701Z,21.00
2019-05-13T08:01:25.552Z,20.40
2019-05-13T08:04:29.354Z,20.70
2019-05-13T08:07:33.424Z,20.90
2019-05-13T08:10:37.170Z,20.70
2019-05-13T08:13:41.591Z,21.70
2019-05-13T08:16:46.431Z,18.80
2019-05-13T08:19:51.981Z,19.80
2019-05-13T08:22:55.873Z,17.40
2019-05-13T08:26:02.077Z,16.70
2019-05-13T08:29:06.137Z,16.50
2019-05-13T08:32:11.310Z,17.80
2019-05-13T08:35:15.502Z,15.40
2019-05-13T08:38:19.530Z,15.70
2019-05-13T08:41:23.672Z,16.60
2019-05-13T08:44:27.443Z,15.80
2019-05-13T08:47:31.505Z,16.10
2019-05-13T08:50:35.443Z,15.00
2019-05-13T08:53:39.202Z,14.10
2019-05-13T08:56:43.151Z,13.30
2019-05-13T08:59:46.838Z,10.60
2019-05-13T09:02:52.251Z,10.30
2019-05-13T09:05:57.219Z,11.60
2019-05-13T09:09:02.390Z,10.30
2019-05-13T09:12:06.310Z,9.50
2019-05-13T09:15:11.865Z,10.50
2019-05-13T09:18:15.772Z,11.40
2019-05-13T09:21:22.289Z,11.80
2019-05-13T09:24:33.025Z,11.20
2019-05-13T09:27:31.890Z,11.80
2019-05-13T09:30:36.136Z,11.40
2019-05-13T09:33:41.804Z,11.40
2019-05-13T09:36:45.299Z,11.70
2019-05-13T09:39:51.473Z,12.20
2019-05-13T09:42:55.319Z,12.90
2019-05-13T09:46:01.431Z,12.70
2019-05-13T09:49:16.183Z,11.40
2019-05-13T09:52:11.885Z,11.80
2019-05-13T09:55:26.465Z,12.60
2019-05-13T09:58:22.336Z,12.20
2019-05-13T10:01:26.407Z,13.00
2019-05-13T10:04:31.810Z,12.70
2019-05-13T10:07:35.923Z,11.10
2019-05-13T10:10:42.112Z,12.30
2019-05-13T10:13:45.139Z,12.70
2019-05-13T10:16:51.329Z,13.10
2019-05-13T10:19:54.245Z,12.70
2019-05-13T10:22:57.935Z,13.30
2019-05-13T10:26:03.861Z,12.90
2019-05-13T10:29:07.691Z,12.90
2019-05-13T10:32:12.010Z,12.60
2019-05-13T10:35:15.854Z,12.50
2019-05-13T10:38:22.076Z,12.90
2019-05-13T10:41:25.416Z,13.30
2019-05-13T10:44:29.183Z,13.00
2019-05-13T10:47:33.749Z,12.70
2019-05-13T10:50:37.470Z,10.30
2019-05-13T10:53:42.558Z,10.40
2019-05-13T10:56:46.530Z,10.10
2019-05-13T10:59:52.461Z,9.10
2019-05-13T11:02:55.942Z,8.30
2019-05-13T11:05:59.684Z,9.60
2019-05-13T11:09:05.382Z,9.40
2019-05-13T11:12:11.660Z,8.60
2019-05-13T11:15:14.809Z,8.30
2019-05-13T11:18:19.686Z,7.30
2019-05-13T11:21:24.138Z,8.40
2019-05-13T11:24:28.829Z,8.90
2019-05-13T11:27:32.599Z,8.40
2019-05-13T11:30:37.222Z,8.20
2019-05-13T11:33:42.483Z,8.40
2019-05-13T11:36:46.645Z,8.00
2019-05-13T11:39:51.697Z,9.10
2019-05-13T11:42:55.600Z,8.80
2019-05-13T11:46:01.978Z,8.80
2019-05-13T11:49:04.993Z,8.70
2019-05-13T11:52:08.708Z,7.80
2019-05-13T11:55:13.193Z,6.80
2019-05-13T11:58:17.020Z,7.50
2019-05-13T12:01:22.885Z,7.10
2019-05-13T12:04:26.568Z,5.80
2019-05-13T12:07:32.938Z,6.00
2019-05-13T12:10:35.963Z,6.70
2019-05-13T12:13:42.044Z,5.30
2019-05-13T12:16:45.136Z,5.00
2019-05-13T12:19:49.065Z,5.10
2019-05-13T12:22:52.994Z,5.80
2019-05-13T12:25:56.639Z,5.00
2019-05-13T12:29:02.743Z,5.40
2019-05-13T12:32:06.003Z,4.80
2019-05-13T12:35:13.225Z,4.80
2019-05-13T12:38:15.656Z,4.30
2019-05-13T12:41:22.756Z,4.70
2019-05-13T12:44:25.025Z,5.70
2019-05-13T12:47:28.975Z,5.80
2019-05-13T12:50:33.016Z,6.30
2019-05-13T12:53:36.783Z,6.40
2019-05-13T12:56:42.552Z,6.40
2019-05-13T12:59:46.290Z,6.50
2019-05-13T13:02:52.017Z,6.80
2019-05-13T13:06:21.126Z,5.60
2019-05-13T13:09:01.429Z,5.60
2019-05-13T13:12:05.156Z,4.90
2019-05-13T13:15:32.917Z,5.00
2019-05-13T13:18:15.271Z,5.10
2019-05-13T13:21:19.221Z,5.80
2019-05-13T13:24:23.807Z,6.30
2019-05-13T13:27:57.711Z,6.40
2019-05-13T13:30:35.603Z,6.50
2019-05-13T13:33:39.419Z,6.60
2019-05-13T13:39:48.441Z,6.60
2019-05-13T13:42:53.197Z,5.90
2019-05-13T13:46:08.496Z,5.70
2019-05-13T13:49:02.644Z,6.30
2019-05-13T13:52:06.402Z,7.20
2019-05-13T13:55:15.324Z,7.40
2019-05-13T13:58:16.315Z,7.80
2019-05-13T14:01:26.052Z,8.10
2019-05-13T14:04:25.584Z,8.50
2019-05-13T14:07:13.009Z,5.90
2019-05-13T14:07:35.766Z,7.80
2019-05-13T14:10:34.745Z,7.00
2019-05-13T14:13:39.226Z,6.70
2019-05-13T14:16:46.433Z,6.90
2019-05-13T14:19:48.589Z,6.70
2019-05-13T14:22:57.536Z,7.70
2019-05-13T14:25:58.591Z,7.30
2019-05-13T14:29:02.804Z,7.00
2019-05-13T14:32:06.719Z,7.20
2019-05-13T14:35:12.277Z,7.70
2019-05-13T14:38:16.072Z,7.60
2019-05-13T14:41:21.775Z,8.40
2019-05-13T14:44:25.129Z,8.10
2019-05-13T14:47:29.077Z,8.70
2019-05-13T14:50:32.817Z,8.90
2019-05-13T14:53:36.531Z,9.20
2019-05-13T14:56:42.036Z,8.60
2019-05-13T14:59:45.989Z,9.10
2019-05-13T15:02:51.826Z,8.20
2019-05-13T15:05:56.137Z,7.90
2019-05-13T15:09:01.806Z,7.40
2019-05-13T15:12:05.721Z,7.70
2019-05-13T15:15:09.860Z,7.80
2019-05-13T15:18:13.565Z,8.40
2019-05-13T15:21:17.286Z,8.00
2019-05-13T15:24:21.351Z,8.30
2019-05-13T15:27:25.181Z,8.60
2019-05-13T15:30:31.555Z,8.50
2019-05-13T15:33:35.419Z,7.90
2019-05-13T15:36:39.153Z,8.60
2019-05-13T15:39:43.094Z,9.00
2019-05-13T15:42:46.858Z,9.40
2019-05-13T15:45:51.285Z,9.30
2019-05-13T15:48:55.870Z,9.70
2019-05-13T15:52:01.747Z,8.70
2019-05-13T15:55:05.477Z,8.00
2019-05-13T15:58:11.555Z,7.70
2019-05-13T16:01:14.779Z,7.10
2019-05-13T16:04:18.461Z,6.40
2019-05-13T16:07:22.434Z,6.30
2019-05-13T16:10:26.123Z,6.60
2019-05-13T16:13:31.795Z,6.90
2019-05-13T16:16:35.985Z,7.80
2019-05-13T16:19:41.878Z,7.50
2019-05-13T16:22:45.336Z,8.00
2019-05-13T16:25:51.993Z,7.80
2019-05-13T16:28:55.293Z,7.90
2019-05-13T16:32:01.345Z,9.20
2019-05-13T16:35:05.069Z,10.20
2019-05-13T16:38:11.148Z,11.00
2019-05-13T16:41:14.289Z,11.30
2019-05-13T16:44:18.209Z,11.60
2019-05-13T16:47:21.898Z,11.70
2019-05-13T16:50:25.832Z,12.00
2019-05-13T16:53:31.447Z,12.00
2019-05-13T16:56:35.467Z,11.80
2019-05-13T16:59:41.004Z,11.70
2019-05-13T17:02:44.608Z,11.70
2019-05-13T17:05:48.389Z,11.70
2019-05-13T17:08:52.108Z,12.00
2019-05-13T17:11:55.872Z,11.80
2019-05-13T17:15:01.432Z,12.20
2019-05-13T17:18:11.233Z,11.70
2019-05-13T17:21:11.180Z,12.00
2019-05-13T17:24:14.957Z,12.30
2019-05-13T17:27:18.647Z,12.30
2019-05-13T17:30:23.925Z,12.20
2019-05-13T17:33:27.721Z,12.40
2019-05-13T17:36:32.484Z,12.60
2019-05-13T17:39:36.821Z,12.60
2019-05-13T17:42:41.425Z,12.50
2019-05-13T17:45:45.482Z,12.50
2019-05-13T17:48:49.207Z,12.50
2019-05-13T17:51:52.893Z,12.70
2019-05-13T17:54:56.619Z,12.30
2019-05-13T17:58:01.364Z,12.30
2019-05-13T18:01:05.618Z,12.70
2019-05-13T18:04:11.788Z,12.60
2019-05-13T18:07:15.277Z,12.80
2019-05-13T18:10:19.030Z,12.90
2019-05-13T18:13:22.725Z,12.70
2019-05-13T18:16:27.158Z,12.60
2019-05-13T18:19:31.697Z,12.60
2019-05-13T18:22:36.031Z,12.90
2019-05-13T18:25:42.055Z,12.70
2019-05-13T18:28:45.158Z,13.20
2019-05-13T18:31:49.124Z,13.20
2019-05-13T18:34:52.841Z,13.50
2019-05-13T18:37:56.586Z,13.50
2019-05-13T18:41:06.294Z,13.80
2019-05-13T18:44:22.156Z,14.00
2019-05-13T18:47:26.099Z,14.20
2019-05-13T18:50:31.322Z,14.80
2019-05-13T18:53:35.673Z,15.60
2019-05-13T18:56:41.472Z,16.00
2019-05-13T18:59:45.084Z,16.10
2019-05-13T19:02:48.769Z,16.90
2019-05-13T19:05:52.496Z,17.20
2019-05-13T19:08:56.255Z,17.80
2019-05-13T19:12:01.469Z,18.10
2019-05-13T19:15:07.078Z,18.20
2019-05-13T19:18:12.214Z,18.30
2019-05-13T19:21:16.174Z,18.60
2019-05-13T19:24:19.848Z,18.90
2019-05-13T19:27:23.553Z,18.80
2019-05-13T19:30:27.251Z,18.80
2019-05-13T19:33:31.319Z,19.00
2019-05-13T19:36:35.019Z,19.50
2019-05-13T19:39:38.692Z,19.70
2019-05-13T19:42:42.505Z,19.80
2019-05-13T19:45:46.226Z,20.10
2019-05-13T19:48:52.071Z,20.10
2019-05-13T19:51:55.343Z,20.30
2019-05-13T19:55:01.398Z,20.30
2019-05-13T19:58:04.693Z,20.60
2019-05-13T20:01:08.650Z,20.70
2019-05-13T20:04:12.339Z,20.70
2019-05-13T20:07:16.283Z,20.70
2019-05-13T20:10:21.984Z,20.80
2019-05-13T20:13:25.970Z,21.00
2019-05-13T20:16:31.992Z,21.20
2019-05-13T20:19:46.546Z,21.20
2019-05-13T20:22:42.233Z,21.20
2019-05-13T20:25:49.363Z,21.40
2019-05-13T20:28:53.029Z,21.30
2019-05-13T20:31:56.709Z,21.30
2019-05-13T20:35:02.136Z,21.60
2019-05-13T20:38:06.279Z,21.80
2019-05-13T20:41:11.635Z,22.00
2019-05-13T20:44:15.473Z,21.90
2019-05-13T20:47:21.001Z,22.30
2019-05-13T20:50:24.605Z,22.80
2019-05-13T20:53:28.550Z,22.60
2019-05-13T20:56:32.236Z,22.80
2019-05-13T20:59:35.928Z,23.20
2019-05-13T21:02:41.672Z,23.70
2019-05-13T21:05:45.282Z,23.80
2019-05-13T21:08:48.988Z,24.70
2019-05-13T21:11:52.768Z,24.80
2019-05-13T21:14:56.475Z,25.10
2019-05-13T21:18:02.026Z,25.40
2019-05-13T21:21:05.592Z,25.30
2019-05-13T21:24:09.505Z,25.40
2019-05-13T21:27:14.007Z,25.60
2019-05-13T21:30:17.851Z,25.90
2019-05-13T21:33:22.099Z,25.90
2019-05-13T21:36:26.016Z,25.90
2019-05-13T21:39:31.833Z,25.80
2019-05-13T21:42:35.495Z,25.90
2019-05-13T21:45:41.072Z,26.30
2019-05-13T21:48:44.582Z,26.40
2019-05-13T21:51:48.473Z,27.10
2019-05-13T21:54:52.169Z,26.80
2019-05-13T21:57:56.105Z,27.10
2019-05-13T22:01:01.577Z,26.90
2019-05-13T22:04:05.485Z,27.20
2019-05-13T22:07:11.930Z,27.30
2019-05-13T22:10:15.445Z,27.80
2019-05-13T22:13:19.078Z,27.60
2019-05-13T22:16:22.757Z,27.80
2019-05-13T22:19:26.419Z,27.60
2019-05-13T22:22:32.103Z,27.80
2019-05-13T22:25:36.194Z,27.70
2019-05-13T22:28:41.722Z,27.80
2019-05-13T22:31:45.489Z,27.60
2019-05-13T22:34:51.043Z,27.60
2019-05-13T22:37:54.538Z,27.50
2019-05-13T22:41:01.050Z,27.30
2019-05-13T22:44:04.198Z,27.40
2019-05-13T22:47:07.862Z,27.10
2019-05-13T22:50:12.223Z,27.30
2019-05-13T22:53:15.888Z,27.00
2019-05-13T22:56:19.528Z,27.20
2019-05-13T22:59:23.233Z,27.20
2019-05-13T23:02:27.435Z,27.30
2019-05-13T23:05:31.242Z,27.20
2019-05-13T23:08:35.174Z,27.30
2019-05-13T23:11:39.073Z,27.40
2019-05-13T23:14:42.843Z,27.50
2019-05-13T23:17:48.550Z,27.30
2019-05-13T23:20:52.164Z,27.30
2019-05-13T23:23:55.927Z,27.30
2019-05-13T23:27:01.919Z,27.50
2019-05-13T23:30:05.285Z,27.70
2019-05-13T23:33:11.412Z,28.00
2019-05-13T23:36:14.481Z,28.50
2019-05-13T23:39:18.136Z,28.40
2019-05-13T23:42:21.835Z,28.40
2019-05-13T23:45:25.497Z,28.50
2019-05-13T23:48:29.201Z,28.70
2019-05-13T23:51:32.874Z,28.70
2019-05-13T23:54:36.797Z,28.80
2019-05-13T23:57:42.155Z,28.80
